createdAt,value
2018-09-26T00:01:16.818Z,6.40
2018-09-26T00:03:49.025Z,6.40
2018-09-26T00:06:18.071Z,6.40
2018-09-26T00:08:47.102Z,6.40
2018-09-26T00:11:16.122Z,6.40
2018-09-26T00:13:45.197Z,6.40
2018-09-26T00:16:14.230Z,6.40
2018-09-26T00:18:43.235Z,6.30
2018-09-26T00:21:12.303Z,6.30
2018-09-26T00:23:41.301Z,6.30
2018-09-26T00:26:10.386Z,6.20
2018-09-26T00:28:39.394Z,6.20
2018-09-26T00:31:08.454Z,6.20
2018-09-26T00:33:37.519Z,6.10
2018-09-26T00:36:06.651Z,6.10
2018-09-26T00:38:35.672Z,6.10
2018-09-26T00:41:04.751Z,6.10
2018-09-26T00:43:33.764Z,6.20
2018-09-26T00:46:02.888Z,6.20
2018-09-26T00:48:31.879Z,6.20
2018-09-26T00:51:00.959Z,6.30
2018-09-26T00:53:29.950Z,6.30
2018-09-26T00:55:58.951Z,6.30
2018-09-26T00:58:28.026Z,6.40
2018-09-26T01:00:57.084Z,6.40
2018-09-26T01:03:26.130Z,6.30
2018-09-26T01:05:55.169Z,6.30
2018-09-26T01:08:24.971Z,6.30
2018-09-26T01:10:53.981Z,6.20
2018-09-26T01:13:29.358Z,6.10
2018-09-26T01:15:58.421Z,6.00
2018-09-26T01:18:27.430Z,5.90
2018-09-26T01:20:56.509Z,5.80
2018-09-26T01:23:25.559Z,5.80
2018-09-26T01:25:54.593Z,5.80
2018-09-26T01:28:23.626Z,5.80
2018-09-26T01:30:52.634Z,5.80
2018-09-26T01:33:21.699Z,5.80
2018-09-26T01:35:50.693Z,5.80
2018-09-26T01:38:19.722Z,5.80
2018-09-26T01:40:48.802Z,5.70
2018-09-26T01:43:17.860Z,5.70
2018-09-26T01:45:46.881Z,5.70
2018-09-26T01:48:15.933Z,5.70
2018-09-26T01:50:45.013Z,5.60
2018-09-26T01:53:14.059Z,5.60
2018-09-26T01:55:43.106Z,5.50
2018-09-26T01:58:12.163Z,5.60
2018-09-26T02:00:41.250Z,5.60
2018-09-26T02:03:10.265Z,5.60
2018-09-26T02:05:39.286Z,5.60
2018-09-26T02:08:08.329Z,5.60
2018-09-26T02:10:37.374Z,5.60
2018-09-26T02:13:06.672Z,5.60
2018-09-26T02:15:35.733Z,5.60
2018-09-26T02:18:04.762Z,5.60
2018-09-26T02:20:33.819Z,5.70
2018-09-26T02:23:02.842Z,5.80
2018-09-26T02:25:31.924Z,5.90
2018-09-26T02:28:00.975Z,6.00
2018-09-26T02:30:29.985Z,6.10
2018-09-26T02:32:59.077Z,6.10
2018-09-26T02:35:28.143Z,6.10
2018-09-26T02:37:57.170Z,6.20
2018-09-26T02:40:26.248Z,6.20
2018-09-26T02:42:55.263Z,6.20
2018-09-26T02:45:24.332Z,6.30
2018-09-26T02:47:53.389Z,6.30
2018-09-26T02:50:22.425Z,6.40
2018-09-26T02:52:51.516Z,6.40
2018-09-26T02:55:20.585Z,6.40
2018-09-26T02:57:49.591Z,6.50
2018-09-26T03:00:18.667Z,6.50
2018-09-26T03:02:47.706Z,6.50
2018-09-26T03:05:16.769Z,6.50
2018-09-26T03:07:45.823Z,6.50
2018-09-26T03:10:14.958Z,6.50
2018-09-26T03:12:43.979Z,6.40
2018-09-26T03:15:13.025Z,6.40
2018-09-26T03:17:42.155Z,6.40
2018-09-26T03:20:11.181Z,6.50
2018-09-26T03:22:40.243Z,6.50
2018-09-26T03:25:09.363Z,6.50
2018-09-26T03:27:38.434Z,6.50
2018-09-26T03:30:07.505Z,6.50
2018-09-26T03:32:36.488Z,6.60
2018-09-26T03:35:05.567Z,6.60
2018-09-26T03:37:34.607Z,6.70
2018-09-26T03:40:03.693Z,6.70
2018-09-26T03:42:32.702Z,6.70
2018-09-26T03:45:01.754Z,6.80
2018-09-26T03:47:37.499Z,6.80
2018-09-26T03:50:06.795Z,6.80
2018-09-26T03:52:36.097Z,6.80
2018-09-26T03:55:05.470Z,6.80
2018-09-26T03:57:34.500Z,6.70
2018-09-26T04:00:03.792Z,6.70
2018-09-26T04:02:32.905Z,6.70
2018-09-26T04:05:01.977Z,6.70
2018-09-26T04:07:30.981Z,6.70
2018-09-26T04:10:00.002Z,6.70
2018-09-26T04:12:29.106Z,6.80
2018-09-26T04:14:58.158Z,6.90
2018-09-26T04:17:27.189Z,6.90
2018-09-26T04:19:57.059Z,6.90
2018-09-26T04:22:26.122Z,7.00
2018-09-26T04:24:55.161Z,6.90
2018-09-26T04:27:24.316Z,7.00
2018-09-26T04:29:53.312Z,6.90
2018-09-26T04:32:22.339Z,6.90
2018-09-26T04:34:51.406Z,7.00
2018-09-26T04:37:20.543Z,7.00
2018-09-26T04:39:49.573Z,7.00
2018-09-26T04:42:18.682Z,7.00
2018-09-26T04:44:47.721Z,7.00
2018-09-26T04:47:16.986Z,7.10
2018-09-26T04:49:46.020Z,7.10
2018-09-26T04:52:15.085Z,7.10
2018-09-26T04:54:44.101Z,7.10
2018-09-26T04:57:13.180Z,7.20
2018-09-26T04:59:42.248Z,7.10
2018-09-26T05:02:11.278Z,7.10
2018-09-26T05:04:40.328Z,7.00
2018-09-26T05:07:09.386Z,7.00
2018-09-26T05:09:38.385Z,7.00
2018-09-26T05:12:07.433Z,7.00
2018-09-26T05:14:36.631Z,6.90
2018-09-26T05:17:05.922Z,6.90
2018-09-26T05:19:34.993Z,6.80
2018-09-26T05:22:04.053Z,6.80
2018-09-26T05:24:33.205Z,6.80
2018-09-26T05:27:02.224Z,6.80
2018-09-26T05:29:31.416Z,6.80
2018-09-26T05:32:00.572Z,6.70
2018-09-26T05:34:29.852Z,6.70
2018-09-26T05:36:58.926Z,6.80
2018-09-26T05:39:28.209Z,6.80
2018-09-26T05:41:57.275Z,6.90
2018-09-26T05:44:26.430Z,7.00
2018-09-26T05:46:55.458Z,7.00
2018-09-26T05:49:24.549Z,7.10
2018-09-26T05:51:53.569Z,7.20
2018-09-26T05:54:22.624Z,7.10
2018-09-26T05:56:51.693Z,7.10
2018-09-26T05:59:20.812Z,7.10
2018-09-26T06:01:50.004Z,7.10
2018-09-26T06:04:19.019Z,7.10
2018-09-26T06:06:48.095Z,7.10
2018-09-26T06:09:17.161Z,7.10
2018-09-26T06:11:46.204Z,7.20
2018-09-26T06:14:15.317Z,7.20
2018-09-26T06:16:44.454Z,7.30
2018-09-26T06:19:13.470Z,7.40
2018-09-26T06:21:42.664Z,7.50
2018-09-26T06:24:11.761Z,7.50
2018-09-26T06:26:40.811Z,7.60
2018-09-26T06:29:09.891Z,7.70
2018-09-26T06:31:38.906Z,7.80
2018-09-26T06:34:07.989Z,7.80
2018-09-26T06:36:37.118Z,7.90
2018-09-26T06:39:10.083Z,7.90
2018-09-26T06:41:39.285Z,8.00
2018-09-26T06:44:08.422Z,8.10
2018-09-26T06:46:37.555Z,8.10
2018-09-26T06:49:06.644Z,8.20
2018-09-26T06:51:35.722Z,8.30
2018-09-26T06:54:04.789Z,8.30
2018-09-26T06:56:33.951Z,8.40
2018-09-26T06:59:03.036Z,8.40
2018-09-26T07:01:32.148Z,8.50
2018-09-26T07:04:01.392Z,8.60
2018-09-26T07:06:31.108Z,8.60
2018-09-26T07:09:00.391Z,8.70
2018-09-26T07:11:29.561Z,8.80
2018-09-26T07:13:58.697Z,8.80
2018-09-26T07:16:27.750Z,8.90
2018-09-26T07:18:56.847Z,8.90
2018-09-26T07:21:27.543Z,9.00
2018-09-26T07:24:00.939Z,9.10
2018-09-26T07:26:33.805Z,9.20
2018-09-26T07:29:09.835Z,9.20
2018-09-26T07:31:50.808Z,9.30
2018-09-26T07:34:40.402Z,9.40
2018-09-26T07:37:11.914Z,9.50
2018-09-26T07:39:46.069Z,9.60
2018-09-26T07:42:19.698Z,9.70
2018-09-26T07:45:00.284Z,9.80
2018-09-26T07:47:35.464Z,9.80
2018-09-26T07:50:07.897Z,9.90
2018-09-26T07:52:41.915Z,9.90
2018-09-26T07:55:13.917Z,10.00
2018-09-26T07:57:50.920Z,10.10
2018-09-26T08:00:22.616Z,10.20
2018-09-26T08:02:55.031Z,10.30
2018-09-26T08:05:32.236Z,10.40
2018-09-26T08:08:03.486Z,10.50
2018-09-26T08:10:34.704Z,10.50
2018-09-26T08:13:09.942Z,10.60
2018-09-26T08:15:41.791Z,10.70
2018-09-26T08:18:15.267Z,10.70
2018-09-26T08:20:48.924Z,10.80
2018-09-26T08:23:30.570Z,10.90
2018-09-26T08:26:02.645Z,11.00
2018-09-26T08:28:38.530Z,11.10
2018-09-26T08:31:17.246Z,11.10
2018-09-26T08:33:49.060Z,11.20
2018-09-26T08:36:21.775Z,11.20
2018-09-26T08:38:54.633Z,11.30
2018-09-26T08:41:26.039Z,11.40
2018-09-26T08:44:02.205Z,11.50
2018-09-26T08:46:34.514Z,11.60
2018-09-26T08:49:06.842Z,11.70
2018-09-26T08:51:41.793Z,11.80
2018-09-26T08:54:13.133Z,12.00
2018-09-26T08:56:44.247Z,12.20
2018-09-26T08:59:19.730Z,12.50
2018-09-26T09:01:54.661Z,12.70
2018-09-26T09:04:26.364Z,13.00
2018-09-26T09:06:59.229Z,13.20
2018-09-26T09:09:33.201Z,13.40
2018-09-26T09:12:06.392Z,13.60
2018-09-26T09:14:41.089Z,13.60
2018-09-26T09:17:10.585Z,13.50
2018-09-26T09:19:43.425Z,13.40
2018-09-26T09:22:16.370Z,13.40
2018-09-26T09:24:49.318Z,13.50
2018-09-26T09:27:21.767Z,13.60
2018-09-26T09:29:50.938Z,13.60
2018-09-26T09:32:20.119Z,13.70
2018-09-26T09:34:49.161Z,13.80
2018-09-26T09:37:21.055Z,13.90
2018-09-26T09:42:32.936Z,14.10
2018-09-26T09:45:07.604Z,14.20
2018-09-26T09:47:38.115Z,14.40
2018-09-26T09:50:07.582Z,14.50
2018-09-26T09:52:45.448Z,14.60
2018-09-26T09:55:19.177Z,14.80
2018-09-26T09:57:56.186Z,14.80
2018-09-26T10:00:33.261Z,14.90
2018-09-26T10:03:15.925Z,14.90
2018-09-26T10:05:49.150Z,14.90
2018-09-26T10:08:28.975Z,14.90
2018-09-26T10:10:58.074Z,14.90
2018-09-26T10:13:27.120Z,14.90
2018-09-26T10:15:56.177Z,15.00
2018-09-26T10:18:25.219Z,15.00
2018-09-26T10:20:57.773Z,15.10
2018-09-26T10:23:29.989Z,15.20
2018-09-26T10:26:00.622Z,15.20
2018-09-26T10:28:30.475Z,15.30
2018-09-26T10:31:01.886Z,15.40
2018-09-26T10:33:31.374Z,15.30
2018-09-26T10:38:41.906Z,15.40
2018-09-26T10:41:14.244Z,15.40
2018-09-26T10:43:45.838Z,15.50
2018-09-26T10:46:15.069Z,15.60
2018-09-26T10:48:50.018Z,15.60
2018-09-26T10:51:24.611Z,15.70
2018-09-26T10:53:56.924Z,15.80
2018-09-26T10:56:26.092Z,15.80
2018-09-26T10:59:01.597Z,16.00
2018-09-26T11:01:30.827Z,16.20
2018-09-26T11:03:59.890Z,16.30
2018-09-26T11:06:28.904Z,16.40
2018-09-26T11:08:57.916Z,16.50
2018-09-26T11:11:27.053Z,16.50
2018-09-26T11:13:56.177Z,16.50
2018-09-26T11:16:25.301Z,16.60
2018-09-26T11:19:00.510Z,16.60
2018-09-26T11:21:29.571Z,16.60
2018-09-26T11:23:58.848Z,16.70
2018-09-26T11:26:28.015Z,16.70
2018-09-26T11:28:57.079Z,16.80
2018-09-26T11:31:26.113Z,16.70
2018-09-26T11:33:55.123Z,16.80
2018-09-26T11:36:24.173Z,16.80
2018-09-26T11:38:53.405Z,16.90
2018-09-26T11:41:22.672Z,16.90
2018-09-26T11:43:51.818Z,16.90
2018-09-26T11:46:21.016Z,17.00
2018-09-26T11:48:50.088Z,17.10
2018-09-26T11:51:19.106Z,17.20
2018-09-26T11:53:48.140Z,17.30
2018-09-26T11:56:17.776Z,17.30
2018-09-26T11:58:46.840Z,17.30
2018-09-26T12:01:16.093Z,17.40
2018-09-26T12:03:45.189Z,17.50
2018-09-26T12:06:14.533Z,17.50
2018-09-26T12:08:44.172Z,17.60
2018-09-26T12:11:13.243Z,17.70
2018-09-26T12:13:42.309Z,17.80
2018-09-26T12:16:11.394Z,18.00
2018-09-26T12:18:40.577Z,18.10
2018-09-26T12:21:09.688Z,18.20
2018-09-26T12:23:38.714Z,18.20
2018-09-26T12:26:08.532Z,18.30
2018-09-26T12:28:37.568Z,18.20
2018-09-26T12:31:07.084Z,18.20
2018-09-26T12:33:36.178Z,18.30
2018-09-26T12:36:05.743Z,18.40
2018-09-26T12:38:35.478Z,18.40
2018-09-26T12:41:04.682Z,18.20
2018-09-26T12:43:33.761Z,18.10
2018-09-26T12:46:03.450Z,17.90
2018-09-26T12:48:32.693Z,17.80
2018-09-26T12:51:01.797Z,17.80
2018-09-26T12:53:31.203Z,17.80
2018-09-26T12:56:00.241Z,17.90
2018-09-26T12:58:29.261Z,18.00
2018-09-26T13:00:58.394Z,18.10
2018-09-26T13:03:32.292Z,18.10
2018-09-26T13:06:04.889Z,18.20
2018-09-26T13:08:35.638Z,18.20
2018-09-26T13:11:07.842Z,18.30
2018-09-26T13:13:43.240Z,18.40
2018-09-26T13:16:14.466Z,18.50
2018-09-26T13:18:50.164Z,18.50
2018-09-26T13:21:25.863Z,18.60
2018-09-26T13:24:04.211Z,18.60
2018-09-26T13:26:40.989Z,18.70
2018-09-26T13:29:17.950Z,18.80
2018-09-26T13:31:51.452Z,18.80
2018-09-26T13:34:25.343Z,18.60
2018-09-26T13:37:02.615Z,18.70
2018-09-26T13:42:19.884Z,18.60
2018-09-26T13:44:51.560Z,18.60
2018-09-26T13:47:27.139Z,18.60
2018-09-26T13:50:03.683Z,18.60
2018-09-26T13:52:38.365Z,18.60
2018-09-26T13:55:16.323Z,18.70
2018-09-26T13:57:54.879Z,18.80
2018-09-26T14:00:27.322Z,19.00
2018-09-26T14:02:59.657Z,19.10
2018-09-26T14:05:32.932Z,19.00
2018-09-26T14:08:07.141Z,19.00
2018-09-26T14:10:43.691Z,18.90
2018-09-26T14:13:22.513Z,18.90
2018-09-26T14:15:52.863Z,18.80
2018-09-26T14:18:22.263Z,18.90
2018-09-26T14:21:08.239Z,18.80
2018-09-26T14:23:37.576Z,18.80
2018-09-26T14:26:07.048Z,18.80
2018-09-26T14:28:36.502Z,18.80
2018-09-26T14:31:06.949Z,18.90
2018-09-26T14:33:36.193Z,19.00
2018-09-26T14:36:07.177Z,19.10
2018-09-26T14:38:36.577Z,19.00
2018-09-26T14:41:05.908Z,19.00
2018-09-26T14:43:35.365Z,19.00
2018-09-26T14:46:04.966Z,19.10
2018-09-26T14:48:34.399Z,19.00
2018-09-26T14:51:04.438Z,18.90
2018-09-26T14:53:40.300Z,18.90
2018-09-26T14:56:09.687Z,19.00
2018-09-26T14:58:39.222Z,19.00
2018-09-26T15:01:09.668Z,18.90
2018-09-26T15:03:38.982Z,18.90
2018-09-26T15:06:15.266Z,18.90
2018-09-26T15:08:44.890Z,18.80
2018-09-26T15:11:14.236Z,18.80
2018-09-26T15:13:43.707Z,18.80
2018-09-26T15:16:13.050Z,18.80
2018-09-26T15:18:42.734Z,18.80
2018-09-26T15:21:12.369Z,18.80
2018-09-26T15:23:41.720Z,18.70
2018-09-26T15:26:12.243Z,18.60
2018-09-26T15:28:42.222Z,18.70
2018-09-26T15:31:11.753Z,18.70
2018-09-26T15:33:41.030Z,18.70
2018-09-26T15:36:10.444Z,18.60
2018-09-26T15:38:39.901Z,18.50
2018-09-26T15:41:10.660Z,18.50
2018-09-26T15:43:40.860Z,18.60
2018-09-26T15:46:10.378Z,18.60
2018-09-26T15:48:39.942Z,18.60
2018-09-26T15:51:09.157Z,18.50
2018-09-26T15:53:39.456Z,18.40
2018-09-26T15:56:08.947Z,18.40
2018-09-26T15:58:38.397Z,18.30
2018-09-26T16:01:08.507Z,18.30
2018-09-26T16:03:38.306Z,18.20
2018-09-26T16:06:07.898Z,18.10
2018-09-26T16:08:36.938Z,18.00
2018-09-26T16:11:06.032Z,17.90
2018-09-26T16:13:35.631Z,17.90
2018-09-26T16:16:04.858Z,17.80
2018-09-26T16:18:33.864Z,17.70
2018-09-26T16:21:03.833Z,17.50
2018-09-26T16:23:33.417Z,17.50
2018-09-26T16:26:02.512Z,17.40
2018-09-26T16:28:32.713Z,17.20
2018-09-26T16:31:02.668Z,17.20
2018-09-26T16:33:31.929Z,17.10
2018-09-26T16:36:00.963Z,17.10
2018-09-26T16:38:32.068Z,17.00
2018-09-26T16:41:01.098Z,17.00
2018-09-26T16:43:30.210Z,16.90
2018-09-26T16:45:59.326Z,17.00
2018-09-26T16:48:28.640Z,16.90
2018-09-26T16:50:58.294Z,17.00
2018-09-26T16:53:27.477Z,17.00
2018-09-26T16:55:56.615Z,16.90
2018-09-26T16:58:25.751Z,16.90
2018-09-26T17:00:55.063Z,16.80
2018-09-26T17:03:24.113Z,16.80
2018-09-26T17:05:53.511Z,16.80
2018-09-26T17:08:22.788Z,16.70
2018-09-26T17:10:52.341Z,16.70
2018-09-26T17:13:21.458Z,16.70
2018-09-26T17:15:51.057Z,16.60
2018-09-26T17:18:20.632Z,16.60
2018-09-26T17:20:49.794Z,16.60
2018-09-26T17:23:18.979Z,16.50
2018-09-26T17:25:47.981Z,16.60
2018-09-26T17:28:17.175Z,16.50
2018-09-26T17:30:46.342Z,16.50
2018-09-26T17:33:15.434Z,16.50
2018-09-26T17:35:44.596Z,16.50
2018-09-26T17:38:13.712Z,16.50
2018-09-26T17:40:42.945Z,16.50
2018-09-26T17:43:12.221Z,16.50
2018-09-26T17:45:42.306Z,16.50
2018-09-26T17:48:11.876Z,16.50
2018-09-26T17:50:40.989Z,16.50
2018-09-26T17:53:11.241Z,16.50
2018-09-26T17:55:41.007Z,16.50
2018-09-26T17:58:10.092Z,16.40
2018-09-26T18:00:39.256Z,16.40
2018-09-26T18:03:08.309Z,16.40
2018-09-26T18:05:38.318Z,16.40
2018-09-26T18:08:07.574Z,16.30
2018-09-26T18:10:36.630Z,16.30
2018-09-26T18:13:06.024Z,16.30
2018-09-26T18:15:35.206Z,16.30
2018-09-26T18:18:04.505Z,16.30
2018-09-26T18:20:33.628Z,16.20
2018-09-26T18:23:02.577Z,16.20
2018-09-26T18:25:31.693Z,16.20
2018-09-26T18:28:05.846Z,16.20
2018-09-26T18:30:35.535Z,16.20
2018-09-26T18:33:04.707Z,16.20
2018-09-26T18:35:33.805Z,16.20
2018-09-26T18:38:03.235Z,16.20
2018-09-26T18:40:32.924Z,16.10
2018-09-26T18:43:03.097Z,16.20
2018-09-26T18:45:32.741Z,16.10
2018-09-26T18:48:01.926Z,16.10
2018-09-26T18:50:31.045Z,16.10
2018-09-26T18:53:00.122Z,16.00
2018-09-26T18:55:29.401Z,16.00
2018-09-26T18:57:58.449Z,16.00
2018-09-26T19:00:27.647Z,15.90
2018-09-26T19:02:57.821Z,15.90
2018-09-26T19:05:29.209Z,15.90
2018-09-26T19:07:58.408Z,15.90
2018-09-26T19:10:27.500Z,15.90
2018-09-26T19:12:56.724Z,15.90
2018-09-26T19:15:26.569Z,15.90
2018-09-26T19:17:55.753Z,15.80
2018-09-26T19:20:24.839Z,15.80
2018-09-26T19:22:54.342Z,15.80
2018-09-26T19:25:23.502Z,15.80
2018-09-26T19:27:52.806Z,15.80
2018-09-26T19:30:21.837Z,15.70
2018-09-26T19:32:50.916Z,15.70
2018-09-26T19:35:19.967Z,15.70
2018-09-26T19:37:48.966Z,15.70
2018-09-26T19:40:18.114Z,15.70
2018-09-26T19:42:47.247Z,15.70
2018-09-26T19:45:16.302Z,15.70
2018-09-26T19:47:45.522Z,15.70
2018-09-26T19:50:14.573Z,15.60
2018-09-26T19:52:43.770Z,15.60
2018-09-26T19:55:13.196Z,15.60
2018-09-26T19:57:42.256Z,15.60
2018-09-26T20:00:11.269Z,15.60
2018-09-26T20:02:40.537Z,15.60
2018-09-26T20:05:09.720Z,15.60
2018-09-26T20:07:38.773Z,15.50
2018-09-26T20:10:08.987Z,15.50
2018-09-26T20:12:38.350Z,15.50
2018-09-26T20:15:07.734Z,15.50
2018-09-26T20:17:37.960Z,15.50
2018-09-26T20:20:07.102Z,15.50
2018-09-26T20:22:36.198Z,15.50
2018-09-26T20:25:05.431Z,15.50
2018-09-26T20:27:34.943Z,15.50
2018-09-26T20:30:04.153Z,15.50
2018-09-26T20:32:33.401Z,15.50
2018-09-26T20:35:10.279Z,15.40
2018-09-26T20:37:40.107Z,15.40
2018-09-26T20:40:10.062Z,15.40
2018-09-26T20:42:39.131Z,15.40
2018-09-26T20:45:08.260Z,15.40
2018-09-26T20:47:38.274Z,15.40
2018-09-26T20:50:08.870Z,15.30
2018-09-26T20:52:39.177Z,15.30
2018-09-26T20:55:08.610Z,15.30
2018-09-26T20:57:37.769Z,15.30
2018-09-26T21:00:07.326Z,15.30
2018-09-26T21:02:37.153Z,15.30
2018-09-26T21:05:06.714Z,15.30
2018-09-26T21:07:36.001Z,15.30
2018-09-26T21:10:05.090Z,15.30
2018-09-26T21:12:34.600Z,15.30
2018-09-26T21:15:05.402Z,15.20
2018-09-26T21:17:35.869Z,15.20
2018-09-26T21:20:05.084Z,15.20
2018-09-26T21:22:35.459Z,15.20
2018-09-26T21:25:05.437Z,15.20
2018-09-26T21:27:35.678Z,15.10
2018-09-26T21:30:04.892Z,15.10
2018-09-26T21:32:33.933Z,15.00
2018-09-26T21:35:02.998Z,15.00
2018-09-26T21:37:35.759Z,14.90
2018-09-26T21:40:05.954Z,14.90
2018-09-26T21:42:37.891Z,14.80
2018-09-26T21:45:07.525Z,14.80
2018-09-26T21:47:37.116Z,14.70
2018-09-26T21:50:06.939Z,14.50
2018-09-26T21:52:37.075Z,14.40
2018-09-26T21:55:08.866Z,14.30
2018-09-26T21:57:38.559Z,14.20
2018-09-26T22:00:08.724Z,14.20
2018-09-26T22:02:38.024Z,14.10
2018-09-26T22:05:07.300Z,14.10
2018-09-26T22:07:36.965Z,14.10
2018-09-26T22:10:07.391Z,14.10
2018-09-26T22:12:37.105Z,14.10
2018-09-26T22:15:11.315Z,14.20
2018-09-26T22:17:40.383Z,14.20
2018-09-26T22:20:09.638Z,14.30
2018-09-26T22:22:38.743Z,14.30
2018-09-26T22:25:08.968Z,14.30
2018-09-26T22:27:39.596Z,14.20
2018-09-26T22:30:08.821Z,14.10
2018-09-26T22:32:39.048Z,14.10
2018-09-26T22:35:09.103Z,14.00
2018-09-26T22:37:38.869Z,13.90
2018-09-26T22:40:09.653Z,13.90
2018-09-26T22:42:49.580Z,13.80
2018-09-26T22:45:19.267Z,13.80
2018-09-26T22:47:49.523Z,13.70
2018-09-26T22:50:19.051Z,13.70
2018-09-26T22:52:48.367Z,13.60
2018-09-26T22:55:17.454Z,13.60
2018-09-26T22:57:46.501Z,13.60
2018-09-26T23:00:16.163Z,13.60
2018-09-26T23:02:45.394Z,13.50
2018-09-26T23:05:14.476Z,13.50
2018-09-26T23:07:43.464Z,13.40
2018-09-26T23:10:12.725Z,13.40
2018-09-26T23:12:41.885Z,13.40
2018-09-26T23:15:11.036Z,13.40
2018-09-26T23:17:40.091Z,13.40
2018-09-26T23:20:09.241Z,13.40
2018-09-26T23:22:38.684Z,13.40
2018-09-26T23:25:08.125Z,13.40
2018-09-26T23:27:37.145Z,13.30
2018-09-26T23:30:06.405Z,13.30
2018-09-26T23:32:35.681Z,13.30
2018-09-26T23:35:04.860Z,13.30
2018-09-26T23:37:35.237Z,13.20
2018-09-26T23:40:04.331Z,13.30
2018-09-26T23:42:33.422Z,13.20
2018-09-26T23:45:03.126Z,13.20
2018-09-26T23:47:32.678Z,13.20
2018-09-26T23:50:01.944Z,13.20
2018-09-26T23:52:31.112Z,13.20
2018-09-26T23:55:00.136Z,13.10
2018-09-26T23:57:29.368Z,13.10
2018-09-26T23:59:58.450Z,13.10
